Time;durP1;ratioP1;P1;durP2;ratioP2;P2;SDS_P1;SDS_P2;PMS_P1;PMS_P2;Temp;Humidity;BMP_temperature;BMP_pressure;BME280_temperature;BME280_humidity;BME280_pressure;Samples;Min_cycle;Max_cycle;Signal;HPM_P1;HPM_P2
2021/05/09 00:00:23;;;;;;;2.40;1.30;;;;;;;;;;5019557;28;20227;-84
2021/05/09 00:02:50;;;;;;;1.10;1.10;;;;;;;;;;5020258;28;20198;-85
2021/05/09 00:05:17;;;;;;;1.50;1.40;;;;;;;;;;5020853;28;20207;-83
2021/05/09 00:07:44;;;;;;;1.85;1.75;;;;;;;;;;5020255;28;20249;-83
2021/05/09 00:10:14;;;;;;;1.50;1.40;;;;;;;;;;5021470;28;20219;-84
2021/05/09 00:12:41;;;;;;;1.20;1.20;;;;;;;;;;5022004;28;20199;-84
2021/05/09 00:15:12;;;;;;;1.63;1.52;;;;;;;;;;5021631;28;20217;-84
2021/05/09 00:17:40;;;;;;;1.20;1.17;;;;;;;;;;5022255;28;20329;-84
2021/05/09 00:20:10;;;;;;;3.45;2.30;;;;;;;;;;5022535;28;20231;-83
2021/05/09 00:22:37;;;;;;;1.83;1.30;;;;;;;;;;5022657;28;20206;-84
2021/05/09 00:25:05;;;;;;;1.52;1.17;;;;;;;;;;5023601;28;20206;-84
2021/05/09 00:27:33;;;;;;;1.15;1.10;;;;;;;;;;5022674;28;20199;-83
2021/05/09 00:30:00;;;;;;;1.23;1.13;;;;;;;;;;5024854;28;20249;-83
2021/05/09 00:32:26;;;;;;;1.30;1.20;;;;;;;;;;5023896;28;20579;-83
2021/05/09 00:34:53;;;;;;;1.90;1.80;;;;;;;;;;5023818;28;20209;-84
2021/05/09 00:37:20;;;;;;;1.35;1.25;;;;;;;;;;5023809;28;20665;-84
2021/05/09 00:39:47;;;;;;;1.67;1.38;;;;;;;;;;5027889;28;20231;-83
2021/05/09 00:42:14;;;;;;;1.10;1.10;;;;;;;;;;5027862;28;20201;-84
2021/05/09 00:44:41;;;;;;;1.52;1.42;;;;;;;;;;5029059;28;20207;-84
2021/05/09 00:47:10;;;;;;;1.70;1.60;;;;;;;;;;5029414;28;20209;-83
2021/05/09 00:49:38;;;;;;;3.28;1.48;;;;;;;;;;5030272;28;20671;-84
2021/05/09 00:52:07;;;;;;;2.25;1.42;;;;;;;;;;5029980;28;20387;-83
2021/05/09 00:54:35;;;;;;;2.42;1.52;;;;;;;;;;5030112;28;20590;-84
2021/05/09 00:57:02;;;;;;;2.17;1.98;;;;;;;;;;5029553;28;20211;-84
2021/05/09 00:59:30;;;;;;;1.55;1.45;;;;;;;;;;5030116;28;20227;-85
2021/05/09 01:01:58;;;;;;;1.98;1.48;;;;;;;;;;5031291;28;20210;-85
2021/05/09 01:04:25;;;;;;;1.25;1.08;;;;;;;;;;5031191;28;20259;-85
2021/05/09 01:06:52;;;;;;;2.15;1.20;;;;;;;;;;5031893;28;20580;-84
2021/05/09 01:09:20;;;;;;;1.33;1.30;;;;;;;;;;5030983;28;20696;-84
2021/05/09 01:11:47;;;;;;;1.95;1.20;;;;;;;;;;5031770;28;20207;-85
2021/05/09 01:14:13;;;;;;;1.23;1.20;;;;;;;;;;5031851;28;20245;-84
2021/05/09 01:16:40;;;;;;;1.65;1.45;;;;;;;;;;5032869;28;20218;-84
2021/05/09 01:19:08;;;;;;;1.20;1.15;;;;;;;;;;5033005;28;20230;-83
2021/05/09 01:21:36;;;;;;;2.58;1.20;;;;;;;;;;5033001;28;20207;-84
2021/05/09 01:24:04;;;;;;;2.55;1.30;;;;;;;;;;5033310;28;20196;-84
2021/05/09 01:26:31;;;;;;;1.40;1.40;;;;;;;;;;5034465;28;20207;-84
2021/05/09 01:28:58;;;;;;;1.33;1.23;;;;;;;;;;5033938;28;20231;-85
2021/05/09 01:31:25;;;;;;;1.77;1.65;;;;;;;;;;5034662;28;20581;-85
2021/05/09 01:33:52;;;;;;;1.75;1.60;;;;;;;;;;5034660;28;20205;-85
2021/05/09 01:36:19;;;;;;;3.42;1.70;;;;;;;;;;5035421;28;20219;-85
2021/05/09 01:38:46;;;;;;;1.60;1.50;;;;;;;;;;5035790;28;20223;-85
2021/05/09 01:41:13;;;;;;;3.88;1.70;;;;;;;;;;5036026;28;20223;-85
2021/05/09 01:43:41;;;;;;;1.92;1.80;;;;;;;;;;5036656;28;20183;-85
2021/05/09 01:46:07;;;;;;;1.27;1.17;;;;;;;;;;5038961;28;20211;-84
2021/05/09 01:48:34;;;;;;;1.63;1.52;;;;;;;;;;5039040;28;20211;-85
2021/05/09 01:51:01;;;;;;;1.90;1.27;;;;;;;;;;5034339;28;20203;-85
2021/05/09 01:53:28;;;;;;;1.50;1.40;;;;;;;;;;5035453;28;20203;-85
2021/05/09 01:55:55;;;;;;;2.38;1.42;;;;;;;;;;5035616;28;20483;-85
2021/05/09 01:58:22;;;;;;;1.30;1.23;;;;;;;;;;5036627;28;20229;-85
2021/05/09 02:00:49;;;;;;;1.10;1.08;;;;;;;;;;5038258;28;20215;-85
2021/05/09 02:03:16;;;;;;;1.00;1.00;;;;;;;;;;5037926;28;20190;-84
2021/05/09 02:05:43;;;;;;;1.40;1.30;;;;;;;;;;5030615;28;20661;-83
2021/05/09 02:08:10;;;;;;;1.58;1.20;;;;;;;;;;5019048;28;20207;-83
2021/05/09 02:10:36;;;;;;;1.45;1.35;;;;;;;;;;5018153;28;20223;-83
2021/05/09 02:13:04;;;;;;;1.40;1.30;;;;;;;;;;5019435;28;20211;-83
2021/05/09 02:15:31;;;;;;;1.50;1.40;;;;;;;;;;5018754;28;20199;-83
2021/05/09 02:17:58;;;;;;;1.17;1.17;;;;;;;;;;5017952;28;20206;-83
2021/05/09 02:20:25;;;;;;;1.33;1.23;;;;;;;;;;5011575;22;20236;-79
2021/05/09 02:22:52;;;;;;;1.08;1.08;;;;;;;;;;4980315;28;20212;-78
2021/05/09 02:25:19;;;;;;;1.38;1.27;;;;;;;;;;4980785;28;20212;-79
2021/05/09 02:27:45;;;;;;;1.52;1.42;;;;;;;;;;4981030;28;20197;-79
2021/05/09 02:30:15;;;;;;;4.40;1.55;;;;;;;;;;4979686;28;20360;-79
2021/05/09 02:32:42;;;;;;;1.58;1.40;;;;;;;;;;4980547;28;20204;-79
2021/05/09 02:35:09;;;;;;;1.77;1.67;;;;;;;;;;4979400;28;20212;-78
2021/05/09 02:37:36;;;;;;;1.75;1.65;;;;;;;;;;4979447;28;20213;-79
2021/05/09 02:40:05;;;;;;;2.33;1.33;;;;;;;;;;4979555;28;20224;-78
2021/05/09 02:42:32;;;;;;;1.50;1.40;;;;;;;;;;4978487;28;20264;-78
2021/05/09 02:44:59;;;;;;;1.52;1.40;;;;;;;;;;4980721;28;20581;-79
2021/05/09 02:47:30;;;;;;;2.83;1.67;;;;;;;;;;4980325;28;20211;-78
2021/05/09 02:49:59;;;;;;;1.90;1.45;;;;;;;;;;4980034;28;20239;-79
2021/05/09 02:52:26;;;;;;;1.33;1.27;;;;;;;;;;4979747;28;20697;-79
2021/05/09 02:54:53;;;;;;;1.20;1.20;;;;;;;;;;4980057;28;20204;-78
2021/05/09 02:57:20;;;;;;;1.52;1.23;;;;;;;;;;4979921;28;20184;-79
2021/05/09 02:59:48;;;;;;;1.73;1.50;;;;;;;;;;4979757;28;20718;-78
2021/05/09 03:02:14;;;;;;;1.20;1.20;;;;;;;;;;4980202;28;20228;-78
2021/05/09 03:04:42;;;;;;;1.70;1.33;;;;;;;;;;4979999;28;20200;-78
2021/05/09 03:07:09;;;;;;;1.20;1.20;;;;;;;;;;4980120;28;20235;-78
2021/05/09 03:09:36;;;;;;;1.90;1.20;;;;;;;;;;4980260;28;20235;-79
2021/05/09 03:12:03;;;;;;;1.42;1.33;;;;;;;;;;4980059;28;20196;-78
2021/05/09 03:14:30;;;;;;;1.60;1.50;;;;;;;;;;4981314;28;20212;-79
2021/05/09 03:16:56;;;;;;;1.35;1.25;;;;;;;;;;4980442;28;20211;-79
2021/05/09 03:19:23;;;;;;;1.08;1.08;;;;;;;;;;4994573;28;20700;-79
2021/05/09 03:21:51;;;;;;;1.45;1.35;;;;;;;;;;5018154;28;20226;-79
2021/05/09 03:24:18;;;;;;;1.50;1.40;;;;;;;;;;5018795;28;20203;-79
2021/05/09 03:26:45;;;;;;;1.42;1.33;;;;;;;;;;5018138;28;20201;-79
2021/05/09 03:29:12;;;;;;;1.40;1.30;;;;;;;;;;5018515;28;20223;-79
2021/05/09 03:31:39;;;;;;;1.35;1.25;;;;;;;;;;5017840;28;20203;-79
2021/05/09 03:34:06;;;;;;;2.13;1.38;;;;;;;;;;5018006;28;20233;-79
2021/05/09 03:36:33;;;;;;;1.38;1.27;;;;;;;;;;5018173;28;20661;-79
2021/05/09 03:39:01;;;;;;;0.93;0.93;;;;;;;;;;5018028;28;20704;-79
2021/05/09 03:41:28;;;;;;;2.58;1.20;;;;;;;;;;5019649;28;20245;-79
2021/05/09 03:43:54;;;;;;;1.02;0.95;;;;;;;;;;5018109;28;20198;-79
2021/05/09 03:46:21;;;;;;;2.03;1.13;;;;;;;;;;5018313;28;20207;-79
2021/05/09 03:48:48;;;;;;;1.85;1.10;;;;;;;;;;5018870;28;20621;-79
2021/05/09 03:51:15;;;;;;;1.05;1.00;;;;;;;;;;5018475;28;20199;-79
2021/05/09 03:53:42;;;;;;;1.20;1.20;;;;;;;;;;5018722;28;20225;-79
2021/05/09 03:56:09;;;;;;;1.00;1.00;;;;;;;;;;5017433;28;20207;-79
2021/05/09 03:58:36;;;;;;;2.78;1.45;;;;;;;;;;5018653;28;20203;-79
2021/05/09 04:01:03;;;;;;;1.15;1.15;;;;;;;;;;5018005;28;20195;-79
2021/05/09 04:03:31;;;;;;;1.50;1.40;;;;;;;;;;5018563;28;20191;-79
2021/05/09 04:05:59;;;;;;;1.80;1.20;;;;;;;;;;5018219;28;20202;-79
2021/05/09 04:08:27;;;;;;;1.38;1.27;;;;;;;;;;5018826;28;20203;-79
2021/05/09 04:10:55;;;;;;;1.83;1.73;;;;;;;;;;5019447;28;20552;-79
2021/05/09 04:13:24;;;;;;;1.25;1.15;;;;;;;;;;5020215;28;20699;-78
2021/05/09 04:15:51;;;;;;;1.20;1.10;;;;;;;;;;5022736;28;20210;-79
2021/05/09 04:18:18;;;;;;;1.45;1.35;;;;;;;;;;5023266;28;20207;-79
2021/05/09 04:20:45;;;;;;;1.23;1.13;;;;;;;;;;5022672;28;20607;-79
2021/05/09 04:23:14;;;;;;;1.20;1.02;;;;;;;;;;5022719;28;20226;-79
2021/05/09 04:25:46;;;;;;;1.90;1.75;;;;;;;;;;5023871;28;20206;-78
2021/05/09 04:28:13;;;;;;;1.40;1.30;;;;;;;;;;5023430;28;20203;-79
2021/05/09 04:30:41;;;;;;;1.73;1.10;;;;;;;;;;5023831;28;20219;-79
2021/05/09 04:33:08;;;;;;;1.02;1.02;;;;;;;;;;5023754;28;20684;-79
2021/05/09 04:35:37;;;;;;;1.27;1.20;;;;;;;;;;5023186;28;20236;-79
2021/05/09 04:38:05;;;;;;;1.27;1.20;;;;;;;;;;5024297;28;20242;-79
2021/05/09 04:40:32;;;;;;;1.63;1.52;;;;;;;;;;5022872;28;20218;-79
2021/05/09 04:43:06;;;;;;;2.00;1.80;;;;;;;;;;5024065;28;20234;-79
2021/05/09 04:45:33;;;;;;;2.42;1.67;;;;;;;;;;5025032;28;20580;-79
2021/05/09 04:48:01;;;;;;;1.60;1.50;;;;;;;;;;5024315;28;20211;-79
2021/05/09 04:50:28;;;;;;;1.58;1.48;;;;;;;;;;5024774;28;20238;-79
2021/05/09 04:52:55;;;;;;;1.58;1.40;;;;;;;;;;5024965;28;20199;-79
2021/05/09 04:55:22;;;;;;;1.40;1.30;;;;;;;;;;5025155;28;20211;-79
2021/05/09 04:57:49;;;;;;;1.67;1.20;;;;;;;;;;5025498;28;20293;-79
2021/05/09 05:00:17;;;;;;;2.03;1.52;;;;;;;;;;5025095;28;20219;-80
2021/05/09 05:02:44;;;;;;;2.13;1.35;;;;;;;;;;5024378;28;20223;-79
2021/05/09 05:05:14;;;;;;;1.45;1.35;;;;;;;;;;5025748;28;20207;-79
2021/05/09 05:07:41;;;;;;;1.85;1.75;;;;;;;;;;5026518;28;20601;-79
2021/05/09 05:10:08;;;;;;;1.40;1.30;;;;;;;;;;5026165;28;20648;-79
2021/05/09 05:12:35;;;;;;;1.40;1.30;;;;;;;;;;5023610;28;20210;-79
2021/05/09 05:15:02;;;;;;;1.27;1.25;;;;;;;;;;5022118;28;20214;-79
2021/05/09 05:17:29;;;;;;;2.13;1.90;;;;;;;;;;5023741;28;20579;-79
2021/05/09 05:19:56;;;;;;;1.38;1.25;;;;;;;;;;5023798;28;20250;-79
2021/05/09 05:22:23;;;;;;;1.60;1.23;;;;;;;;;;5021801;28;20223;-79
2021/05/09 05:24:50;;;;;;;1.83;1.40;;;;;;;;;;5022816;28;20582;-79
2021/05/09 05:27:17;;;;;;;1.65;1.55;;;;;;;;;;5022457;28;20215;-80
2021/05/09 05:29:44;;;;;;;2.22;2.10;;;;;;;;;;5023592;28;20233;-79
2021/05/09 05:32:10;;;;;;;3.08;1.50;;;;;;;;;;5022668;28;20206;-79
2021/05/09 05:34:37;;;;;;;1.65;1.55;;;;;;;;;;5022917;28;20195;-79
2021/05/09 05:37:04;;;;;;;1.40;1.30;;;;;;;;;;5023046;28;20586;-79
2021/05/09 05:39:32;;;;;;;1.85;1.70;;;;;;;;;;5023517;28;20710;-80
2021/05/09 05:42:00;;;;;;;1.77;1.48;;;;;;;;;;5024194;28;20218;-79
2021/05/09 05:44:27;;;;;;;2.22;2.05;;;;;;;;;;5023009;28;20657;-79
2021/05/09 05:46:54;;;;;;;3.03;2.83;;;;;;;;;;5023983;28;20263;-79
2021/05/09 05:49:21;;;;;;;1.77;1.65;;;;;;;;;;5023443;28;20701;-80
2021/05/09 05:51:48;;;;;;;2.10;1.73;;;;;;;;;;5023594;28;20199;-79
2021/05/09 05:54:15;;;;;;;1.60;1.50;;;;;;;;;;5022960;28;20207;-79
2021/05/09 05:56:43;;;;;;;2.00;1.90;;;;;;;;;;5022106;28;20230;-79
2021/05/09 05:59:09;;;;;;;2.80;1.77;;;;;;;;;;5022277;28;20242;-80
2021/05/09 06:01:36;;;;;;;2.35;1.77;;;;;;;;;;5024058;28;20199;-79
2021/05/09 06:04:04;;;;;;;2.40;2.20;;;;;;;;;;5023169;28;20207;-79
2021/05/09 06:06:30;;;;;;;2.70;2.10;;;;;;;;;;5024432;28;20389;-79
2021/05/09 06:08:57;;;;;;;2.45;1.95;;;;;;;;;;5023315;28;20222;-80
2021/05/09 06:11:24;;;;;;;2.20;2.00;;;;;;;;;;5023189;28;20257;-80
2021/05/09 06:13:52;;;;;;;2.50;2.30;;;;;;;;;;5024095;28;20209;-80
2021/05/09 06:16:19;;;;;;;2.28;2.08;;;;;;;;;;5023734;28;20199;-79
2021/05/09 06:18:45;;;;;;;3.08;2.17;;;;;;;;;;5023622;28;20728;-80
2021/05/09 06:21:12;;;;;;;3.28;2.05;;;;;;;;;;5023976;28;20203;-80
2021/05/09 06:23:39;;;;;;;2.00;1.80;;;;;;;;;;5023578;28;20689;-80
2021/05/09 06:26:06;;;;;;;1.95;1.80;;;;;;;;;;5024075;28;20211;-80
2021/05/09 06:28:32;;;;;;;1.73;1.60;;;;;;;;;;5024711;28;20560;-80
2021/05/09 06:31:00;;;;;;;2.75;1.90;;;;;;;;;;5023981;28;20199;-80
2021/05/09 06:33:27;;;;;;;1.55;1.45;;;;;;;;;;5023400;28;20199;-80
2021/05/09 06:35:55;;;;;;;3.15;2.83;;;;;;;;;;5022318;28;20210;-81
2021/05/09 06:38:22;;;;;;;2.08;1.92;;;;;;;;;;5023042;28;20735;-80
2021/05/09 06:40:49;;;;;;;2.08;1.98;;;;;;;;;;5021844;28;20203;-80
2021/05/09 06:43:17;;;;;;;1.55;1.45;;;;;;;;;;5021248;28;20234;-80
2021/05/09 06:45:45;;;;;;;2.03;1.75;;;;;;;;;;5022783;28;20214;-81
2021/05/09 06:48:12;;;;;;;4.30;1.60;;;;;;;;;;5022079;28;20211;-80
2021/05/09 06:50:39;;;;;;;2.55;1.88;;;;;;;;;;5021142;28;20227;-80
2021/05/09 06:53:07;;;;;;;3.00;1.83;;;;;;;;;;5021809;28;20203;-81
2021/05/09 06:55:35;;;;;;;2.20;1.80;;;;;;;;;;5022636;28;20269;-80
2021/05/09 06:58:02;;;;;;;1.60;1.50;;;;;;;;;;5022409;28;20203;-80
2021/05/09 07:00:29;;;;;;;1.40;1.30;;;;;;;;;;5020908;28;20219;-81
2021/05/09 07:02:56;;;;;;;6.65;1.70;;;;;;;;;;5021220;28;20219;-81
2021/05/09 07:05:24;;;;;;;1.58;1.48;;;;;;;;;;5022519;28;20270;-82
2021/05/09 07:07:52;;;;;;;1.60;1.50;;;;;;;;;;5022214;28;20207;-80
2021/05/09 07:10:20;;;;;;;1.98;1.85;;;;;;;;;;5023220;28;20223;-81
2021/05/09 07:12:48;;;;;;;1.20;1.20;;;;;;;;;;5023423;28;20210;-81
2021/05/09 07:15:19;;;;;;;1.50;1.40;;;;;;;;;;5022879;28;20199;-81
2021/05/09 07:17:56;;;;;;;1.52;1.42;;;;;;;;;;5022995;28;20203;-81
2021/05/09 07:20:23;;;;;;;1.70;1.35;;;;;;;;;;5023150;28;20242;-81
2021/05/09 07:22:53;;;;;;;4.53;1.50;;;;;;;;;;5023084;28;20251;-81
2021/05/09 07:25:20;;;;;;;1.38;1.27;;;;;;;;;;5023021;28;20253;-81
2021/05/09 07:27:47;;;;;;;1.42;1.30;;;;;;;;;;5023496;28;20211;-81
2021/05/09 07:30:15;;;;;;;1.77;1.20;;;;;;;;;;5022980;28;20230;-81
2021/05/09 07:32:42;;;;;;;2.70;1.77;;;;;;;;;;5023034;28;20628;-81
2021/05/09 07:35:11;;;;;;;1.30;1.20;;;;;;;;;;5023053;28;20199;-81
2021/05/09 07:37:38;;;;;;;1.40;1.30;;;;;;;;;;5024172;28;20286;-81
2021/05/09 07:40:06;;;;;;;1.75;1.33;;;;;;;;;;5022923;28;20234;-82
2021/05/09 07:42:33;;;;;;;1.40;1.30;;;;;;;;;;5022420;28;20199;-82
2021/05/09 07:45:00;;;;;;;1.20;1.20;;;;;;;;;;5022775;28;20579;-82
2021/05/09 07:47:27;;;;;;;1.48;1.38;;;;;;;;;;5022520;28;20210;-80
2021/05/09 07:49:54;;;;;;;3.72;1.40;;;;;;;;;;5022718;28;20258;-81
2021/05/09 07:52:21;;;;;;;1.63;1.30;;;;;;;;;;5023766;28;20207;-82
2021/05/09 07:54:48;;;;;;;1.83;1.73;;;;;;;;;;5024220;28;20679;-82
2021/05/09 07:57:15;;;;;;;1.75;1.63;;;;;;;;;;5023412;28;20214;-81
2021/05/09 07:59:42;;;;;;;1.40;1.30;;;;;;;;;;5023106;28;20226;-82
2021/05/09 08:02:10;;;;;;;1.40;1.30;;;;;;;;;;5023268;28;20205;-80
2021/05/09 08:04:37;;;;;;;1.23;1.13;;;;;;;;;;5023127;28;20233;-81
2021/05/09 08:07:04;;;;;;;2.22;1.40;;;;;;;;;;5023478;28;20199;-81
2021/05/09 08:09:30;;;;;;;1.70;1.60;;;;;;;;;;5020329;28;20226;-83
2021/05/09 08:11:58;;;;;;;1.67;1.30;;;;;;;;;;5021237;28;20199;-81
2021/05/09 08:14:25;;;;;;;2.17;1.20;;;;;;;;;;5020912;28;20241;-81
2021/05/09 08:16:53;;;;;;;1.58;1.40;;;;;;;;;;5021854;28;20203;-81
2021/05/09 08:19:19;;;;;;;1.10;1.10;;;;;;;;;;5020457;28;20268;-81
2021/05/09 08:21:48;;;;;;;0.90;0.90;;;;;;;;;;4995636;28;20207;-82
2021/05/09 08:24:15;;;;;;;1.45;1.35;;;;;;;;;;4995400;28;20779;-81
2021/05/09 08:26:41;;;;;;;1.58;1.48;;;;;;;;;;4995817;28;20202;-83
2021/05/09 08:29:09;;;;;;;2.45;1.33;;;;;;;;;;4995863;28;20234;-82
2021/05/09 08:31:36;;;;;;;1.38;1.27;;;;;;;;;;5013839;28;20195;-82
2021/05/09 08:34:04;;;;;;;1.80;1.70;;;;;;;;;;5015697;28;20207;-82
2021/05/09 08:36:31;;;;;;;1.70;1.60;;;;;;;;;;5015307;28;20554;-84
2021/05/09 08:38:57;;;;;;;1.58;1.48;;;;;;;;;;5015544;28;20219;-83
2021/05/09 08:41:25;;;;;;;1.92;1.25;;;;;;;;;;5008269;28;20199;-83
2021/05/09 08:43:52;;;;;;;2.65;2.30;;;;;;;;;;4995590;28;20228;-83
2021/05/09 08:46:21;;;;;;;7.10;2.30;;;;;;;;;;4995934;28;20199;-84
2021/05/09 08:48:51;;;;;;;3.10;1.65;;;;;;;;;;4996468;28;20267;-83
2021/05/09 08:51:18;;;;;;;1.52;1.38;;;;;;;;;;4995446;28;20204;-83
2021/05/09 08:53:48;;;;;;;1.25;1.15;;;;;;;;;;4996585;28;20200;-83
2021/05/09 08:56:15;;;;;;;1.63;1.52;;;;;;;;;;4996387;28;20207;-83
2021/05/09 08:58:41;;;;;;;2.53;1.30;;;;;;;;;;4996445;28;20203;-83
2021/05/09 09:01:08;;;;;;;1.90;1.65;;;;;;;;;;5014256;28;20222;-83
2021/05/09 09:03:36;;;;;;;1.25;1.15;;;;;;;;;;5019190;28;20229;-82
2021/05/09 09:06:06;;;;;;;1.75;1.40;;;;;;;;;;5018864;28;20207;-82
2021/05/09 09:08:49;;;;;;;2.28;1.33;;;;;;;;;;5018990;28;20215;-83
2021/05/09 09:11:26;;;;;;;3.67;1.50;;;;;;;;;;5004155;28;20204;-83
2021/05/09 09:14:09;;;;;;;1.17;1.17;;;;;;;;;;5000370;28;20207;-83
2021/05/09 09:16:37;;;;;;;1.40;1.30;;;;;;;;;;4999765;28;20283;-83
2021/05/09 09:19:09;;;;;;;1.48;1.38;;;;;;;;;;4994244;28;20653;-83
2021/05/09 09:21:36;;;;;;;3.13;1.45;;;;;;;;;;4980380;28;20201;-83
2021/05/09 09:24:05;;;;;;;4.65;1.40;;;;;;;;;;4981593;28;20227;-83
2021/05/09 09:26:36;;;;;;;1.60;1.50;;;;;;;;;;4980726;28;20279;-83
2021/05/09 09:29:20;;;;;;;2.85;1.60;;;;;;;;;;4980173;28;20224;-83
2021/05/09 09:31:48;;;;;;;2.65;1.88;;;;;;;;;;4979749;28;20204;-82
2021/05/09 09:34:19;;;;;;;1.63;1.30;;;;;;;;;;4980667;28;20245;-83
2021/05/09 09:36:46;;;;;;;2.05;1.40;;;;;;;;;;4981565;28;20215;-83
2021/05/09 09:39:14;;;;;;;2.08;1.88;;;;;;;;;;4979620;28;20307;-82
2021/05/09 09:41:48;;;;;;;1.48;1.38;;;;;;;;;;4979271;28;20197;-83
2021/05/09 09:44:16;;;;;;;2.63;1.25;;;;;;;;;;4979544;28;20223;-83
2021/05/09 09:46:52;;;;;;;2.15;1.40;;;;;;;;;;4979825;28;20231;-83
2021/05/09 09:49:25;;;;;;;1.98;1.40;;;;;;;;;;4979273;28;20314;-83
2021/05/09 09:51:55;;;;;;;1.83;1.73;;;;;;;;;;4960062;29;20225;-83
2021/05/09 09:54:41;;;;;;;1.80;1.38;;;;;;;;;;4960174;29;20573;-81
2021/05/09 09:57:11;;;;;;;1.77;1.40;;;;;;;;;;4960286;29;20236;-83
2021/05/09 09:59:38;;;;;;;2.42;2.22;;;;;;;;;;4961946;28;20733;-84
2021/05/09 10:02:07;;;;;;;2.63;1.50;;;;;;;;;;4979094;28;20212;-85
2021/05/09 10:04:38;;;;;;;1.70;1.58;;;;;;;;;;4979434;28;20220;-84
2021/05/09 10:07:07;;;;;;;1.55;1.42;;;;;;;;;;4980008;28;20204;-84
2021/05/09 10:09:34;;;;;;;1.40;1.30;;;;;;;;;;4979224;28;20586;-84
2021/05/09 10:12:02;;;;;;;1.58;1.48;;;;;;;;;;4978727;28;20674;-83
2021/05/09 10:14:30;;;;;;;1.67;1.30;;;;;;;;;;4979450;28;20196;-83
2021/05/09 10:16:57;;;;;;;2.13;1.92;;;;;;;;;;4978754;28;20196;-84
2021/05/09 10:19:26;;;;;;;1.83;1.45;;;;;;;;;;4978814;28;20228;-85
2021/05/09 10:21:55;;;;;;;3.45;1.80;;;;;;;;;;4979224;28;20255;-83
2021/05/09 10:24:23;;;;;;;2.10;1.30;;;;;;;;;;4978932;28;20290;-85
2021/05/09 10:26:56;;;;;;;2.20;1.70;;;;;;;;;;4979412;28;20196;-84
2021/05/09 10:29:59;;;;;;;3.05;1.90;;;;;;;;;;4978787;28;20232;-83
2021/05/09 10:32:50;;;;;;;2.75;2.22;;;;;;;;;;4969376;28;20208;-85
2021/05/09 10:35:37;;;;;;;2.33;1.45;;;;;;;;;;4975471;28;20205;-84
2021/05/09 10:38:10;;;;;;;5.95;1.80;;;;;;;;;;4978904;28;20204;-84
2021/05/09 10:40:43;;;;;;;1.40;1.30;;;;;;;;;;4978554;28;20278;-84
2021/05/09 10:43:40;;;;;;;3.95;1.55;;;;;;;;;;4978860;28;20611;-85
2021/05/09 10:46:08;;;;;;;1.40;1.30;;;;;;;;;;4978995;28;20211;-85
2021/05/09 10:48:36;;;;;;;1.60;1.50;;;;;;;;;;4979134;28;20212;-84
2021/05/09 10:51:26;;;;;;;1.90;1.40;;;;;;;;;;4965291;28;20455;-85
2021/05/09 10:53:55;;;;;;;1.38;1.27;;;;;;;;;;4956943;29;20616;-84
2021/05/09 10:56:33;;;;;;;2.85;1.70;;;;;;;;;;4962053;29;20211;-84
2021/05/09 10:59:00;;;;;;;2.25;2.00;;;;;;;;;;4958932;29;20237;-84
2021/05/09 11:01:28;;;;;;;1.83;1.55;;;;;;;;;;4975782;28;20697;-84
2021/05/09 11:04:00;;;;;;;1.60;1.50;;;;;;;;;;4978381;28;20311;-84
2021/05/09 11:06:48;;;;;;;1.20;1.20;;;;;;;;;;4978235;28;20204;-85
2021/05/09 11:09:39;;;;;;;5.88;1.42;;;;;;;;;;4978532;28;20232;-86
2021/05/09 11:12:07;;;;;;;1.52;1.42;;;;;;;;;;4978319;28;20205;-86
2021/05/09 11:14:39;;;;;;;1.70;1.60;;;;;;;;;;4978617;28;20205;-84
2021/05/09 11:17:17;;;;;;;2.33;1.40;;;;;;;;;;4978780;28;20298;-84
2021/05/09 11:19:51;;;;;;;1.60;1.50;;;;;;;;;;4976101;28;20586;-84
2021/05/09 11:22:24;;;;;;;2.90;1.42;;;;;;;;;;4959580;28;20215;-85
2021/05/09 11:24:58;;;;;;;2.17;2.05;;;;;;;;;;4959172;29;20231;-84
2021/05/09 11:27:25;;;;;;;1.88;1.77;;;;;;;;;;4959459;29;20209;-85
2021/05/09 11:29:53;;;;;;;1.70;1.60;;;;;;;;;;4962917;28;20224;-84
2021/05/09 11:32:23;;;;;;;1.70;1.60;;;;;;;;;;4978396;28;20200;-84
2021/05/09 11:34:59;;;;;;;2.35;1.38;;;;;;;;;;4978513;28;20671;-85
2021/05/09 11:37:35;;;;;;;1.48;1.38;;;;;;;;;;4978832;28;20235;-85
2021/05/09 11:40:06;;;;;;;2.35;1.40;;;;;;;;;;4978230;28;20212;-84
2021/05/09 11:42:33;;;;;;;1.48;1.40;;;;;;;;;;4977631;28;20216;-84
2021/05/09 11:45:00;;;;;;;2.33;1.67;;;;;;;;;;4978538;28;20220;-83
2021/05/09 11:47:29;;;;;;;1.58;1.48;;;;;;;;;;4978535;28;20204;-85
2021/05/09 11:49:58;;;;;;;1.90;1.73;;;;;;;;;;4973397;28;20259;-84
2021/05/09 11:52:27;;;;;;;1.88;1.67;;;;;;;;;;4959338;29;20928;-84
2021/05/09 11:54:56;;;;;;;2.15;1.30;;;;;;;;;;4959104;29;20243;-85
2021/05/09 11:57:25;;;;;;;1.52;1.42;;;;;;;;;;4958637;29;20650;-84
2021/05/09 11:59:55;;;;;;;3.63;1.92;;;;;;;;;;4963037;28;20209;-84
2021/05/09 12:02:27;;;;;;;1.48;1.35;;;;;;;;;;4978504;28;20211;-84
2021/05/09 12:04:57;;;;;;;1.70;1.60;;;;;;;;;;4978028;28;20239;-83
2021/05/09 12:07:27;;;;;;;2.25;1.30;;;;;;;;;;4978846;28;20556;-84
2021/05/09 12:09:59;;;;;;;2.15;1.95;;;;;;;;;;4977568;28;20212;-84
2021/05/09 12:12:30;;;;;;;2.13;1.50;;;;;;;;;;4977920;28;20226;-83
2021/05/09 12:15:06;;;;;;;1.30;1.27;;;;;;;;;;4978172;28;20675;-84
2021/05/09 12:17:33;;;;;;;2.47;1.40;;;;;;;;;;4978029;28;20696;-84
2021/05/09 12:20:00;;;;;;;1.98;1.40;;;;;;;;;;4977190;28;20228;-85
2021/05/09 12:22:36;;;;;;;2.22;1.58;;;;;;;;;;4977639;28;20224;-85
2021/05/09 12:25:04;;;;;;;1.95;1.50;;;;;;;;;;4977355;28;20228;-85
2021/05/09 12:27:31;;;;;;;1.60;1.50;;;;;;;;;;4977988;28;20208;-85
2021/05/09 12:29:59;;;;;;;2.45;1.70;;;;;;;;;;4977506;28;20586;-84
2021/05/09 12:32:29;;;;;;;2.30;2.15;;;;;;;;;;4977383;28;20204;-85
2021/05/09 12:35:10;;;;;;;2.35;1.60;;;;;;;;;;4979742;28;20278;-85
2021/05/09 12:37:58;;;;;;;2.35;1.70;;;;;;;;;;4982119;28;20212;-86
2021/05/09 12:40:28;;;;;;;1.67;1.58;;;;;;;;;;4981595;28;20219;-85
2021/05/09 12:42:59;;;;;;;1.98;1.40;;;;;;;;;;4981685;28;20682;-83
2021/05/09 12:45:33;;;;;;;2.65;1.50;;;;;;;;;;4981031;28;20223;-85
2021/05/09 12:48:12;;;;;;;1.88;1.40;;;;;;;;;;4981013;28;20208;-84
2021/05/09 12:51:01;;;;;;;2.60;1.40;;;;;;;;;;4980475;28;20270;-86
2021/05/09 12:53:46;;;;;;;1.58;1.38;;;;;;;;;;4981262;28;20204;-84
2021/05/09 12:56:21;;;;;;;2.08;1.40;;;;;;;;;;4981667;28;20200;-85
2021/05/09 12:59:11;;;;;;;1.40;1.30;;;;;;;;;;4980722;28;20274;-84
2021/05/09 13:01:42;;;;;;;2.38;1.40;;;;;;;;;;4980346;28;20215;-85
2021/05/09 13:04:32;;;;;;;1.42;1.33;;;;;;;;;;4983004;28;20419;-85
2021/05/09 13:06:59;;;;;;;2.00;1.80;;;;;;;;;;4985844;28;20200;-84
2021/05/09 13:09:27;;;;;;;5.07;1.90;;;;;;;;;;4987392;28;20224;-85
2021/05/09 13:11:54;;;;;;;1.88;1.50;;;;;;;;;;4988236;28;20236;-84
2021/05/09 13:14:22;;;;;;;2.83;1.42;;;;;;;;;;4988092;28;20216;-84
2021/05/09 13:16:49;;;;;;;2.28;1.50;;;;;;;;;;4986507;28;20227;-83
2021/05/09 13:19:16;;;;;;;1.52;1.50;;;;;;;;;;5000213;28;20235;-84
2021/05/09 13:21:43;;;;;;;1.65;1.55;;;;;;;;;;5010761;28;20216;-83
2021/05/09 13:24:13;;;;;;;1.58;1.48;;;;;;;;;;5008156;28;20297;-84
2021/05/09 13:26:40;;;;;;;1.60;1.50;;;;;;;;;;5005470;28;20601;-84
2021/05/09 13:29:07;;;;;;;2.15;1.23;;;;;;;;;;5009908;28;20232;-85
2021/05/09 13:31:35;;;;;;;1.80;1.70;;;;;;;;;;5027297;28;20544;-84
2021/05/09 13:34:02;;;;;;;2.22;1.77;;;;;;;;;;5032646;28;20203;-84
2021/05/09 13:36:28;;;;;;;2.35;1.70;;;;;;;;;;5032983;28;20227;-84
2021/05/09 13:38:55;;;;;;;1.63;1.52;;;;;;;;;;5029048;28;20223;-84
2021/05/09 13:41:22;;;;;;;1.98;1.63;;;;;;;;;;5012419;28;20207;-84
2021/05/09 13:43:49;;;;;;;1.63;1.35;;;;;;;;;;5007613;28;20227;-85
2021/05/09 13:46:16;;;;;;;2.17;1.58;;;;;;;;;;5005454;28;20223;-84
2021/05/09 13:48:44;;;;;;;1.83;1.42;;;;;;;;;;5001761;28;20230;-84
2021/05/09 13:51:11;;;;;;;1.65;1.55;;;;;;;;;;5000963;28;20210;-83
2021/05/09 13:53:38;;;;;;;1.60;1.48;;;;;;;;;;4996754;28;20599;-84
2021/05/09 13:56:06;;;;;;;1.65;1.48;;;;;;;;;;5006109;28;20199;-83
2021/05/09 13:58:33;;;;;;;1.83;1.60;;;;;;;;;;5021175;28;20199;-83
2021/05/09 14:01:00;;;;;;;3.28;3.03;;;;;;;;;;5020491;28;20203;-83
2021/05/09 14:03:27;;;;;;;1.90;1.80;;;;;;;;;;5015485;28;20538;-84
2021/05/09 14:05:54;;;;;;;2.38;2.17;;;;;;;;;;5015506;28;20230;-84
2021/05/09 14:08:21;;;;;;;2.15;1.40;;;;;;;;;;5019281;28;20211;-83
2021/05/09 14:10:49;;;;;;;1.80;1.70;;;;;;;;;;5009473;28;20643;-83
2021/05/09 14:13:16;;;;;;;5.95;5.43;;;;;;;;;;4997652;28;20294;-83
2021/05/09 14:15:44;;;;;;;11.15;10.23;;;;;;;;;;4997983;28;20227;-84
2021/05/09 14:18:11;;;;;;;12.80;9.27;;;;;;;;;;4998481;28;20243;-84
2021/05/09 14:20:38;;;;;;;4.75;4.45;;;;;;;;;;4981773;28;20276;-84
2021/05/09 14:23:06;;;;;;;2.67;2.47;;;;;;;;;;4979155;28;20200;-84
2021/05/09 14:25:33;;;;;;;3.65;1.67;;;;;;;;;;4979045;28;20234;-83
2021/05/09 14:28:00;;;;;;;2.53;1.90;;;;;;;;;;4979058;28;20671;-83
2021/05/09 14:30:27;;;;;;;1.52;1.42;;;;;;;;;;4977896;28;20224;-83
2021/05/09 14:32:53;;;;;;;1.48;1.38;;;;;;;;;;4980429;28;20209;-83
2021/05/09 14:35:21;;;;;;;1.92;1.83;;;;;;;;;;4979211;28;20207;-83
2021/05/09 14:37:48;;;;;;;1.95;1.77;;;;;;;;;;4978339;28;20200;-83
2021/05/09 14:40:16;;;;;;;1.65;1.55;;;;;;;;;;4980801;28;20227;-83
2021/05/09 14:42:43;;;;;;;1.60;1.50;;;;;;;;;;4979552;28;20205;-84
2021/05/09 14:45:11;;;;;;;1.75;1.65;;;;;;;;;;4978566;28;20683;-84
2021/05/09 14:47:38;;;;;;;1.65;1.40;;;;;;;;;;4977849;28;20212;-83
2021/05/09 14:50:06;;;;;;;1.40;1.40;;;;;;;;;;4980123;28;20213;-83
2021/05/09 14:52:32;;;;;;;3.33;1.75;;;;;;;;;;4982308;28;20200;-83